createdAt,value
2018-11-21T00:02:48.670Z,100331.99
2018-11-21T00:07:45.566Z,100321.99
2018-11-21T00:12:45.699Z,100317.19
2018-11-21T00:17:42.577Z,100312.34
2018-11-21T00:22:39.455Z,100324.89
2018-11-21T00:27:36.351Z,100329.45
2018-11-21T00:32:33.233Z,100333.87
2018-11-21T00:37:30.122Z,100351.77
2018-11-21T00:42:27.026Z,100337.48
2018-11-21T00:47:23.922Z,100344.02
2018-11-21T00:52:20.794Z,100340.94
2018-11-21T00:57:17.687Z,100347.30
2018-11-21T01:02:14.567Z,100334.12
2018-11-21T01:07:11.574Z,100337.88
2018-11-21T01:12:08.494Z,100334.31
2018-11-21T01:17:05.375Z,100333.64
2018-11-21T01:22:02.275Z,100341.63
2018-11-21T01:26:59.149Z,100331.38
2018-11-21T01:31:56.047Z,100334.61
2018-11-21T01:36:52.946Z,100329.09
2018-11-21T01:41:49.853Z,100316.38
2018-11-21T01:46:46.738Z,100314.13
2018-11-21T01:51:43.622Z,100327.45
2018-11-21T01:56:40.500Z,100350.33
2018-11-21T02:01:37.380Z,100363.19
2018-11-21T02:06:34.265Z,100368.88
2018-11-21T02:11:31.200Z,100362.54
2018-11-21T02:16:28.085Z,100362.73
2018-11-21T02:21:24.970Z,100373.50
2018-11-21T02:26:21.851Z,100388.27
2018-11-21T02:31:18.747Z,100371.89
2018-11-21T02:36:15.636Z,100352.80
2018-11-21T02:41:12.554Z,100383.73
2018-11-21T02:46:09.440Z,100388.27
2018-11-21T02:51:06.339Z,100400.36
2018-11-21T02:56:03.234Z,100391.36
2018-11-21T03:01:00.139Z,100386.66
2018-11-21T03:05:57.039Z,100387.16
2018-11-21T03:10:53.926Z,100391.84
2018-11-21T03:15:50.877Z,100401.47
2018-11-21T03:20:47.748Z,100401.11
2018-11-21T03:25:44.667Z,100398.05
2018-11-21T03:30:41.581Z,100401.30
2018-11-21T03:35:38.471Z,100403.66
2018-11-21T03:40:35.372Z,100411.66
2018-11-21T03:45:32.265Z,100404.83
2018-11-21T03:50:29.161Z,100410.73
2018-11-21T03:55:26.049Z,100414.61
2018-11-21T04:00:23.759Z,100417.41
2018-11-21T04:05:20.634Z,100423.91
2018-11-21T04:10:17.537Z,100420.97
2018-11-21T04:15:14.438Z,100422.45
2018-11-21T04:20:11.329Z,100427.35
2018-11-21T04:25:09.662Z,100430.89
2018-11-21T04:30:09.572Z,100433.87
2018-11-21T04:35:06.850Z,100436.12
2018-11-21T04:40:05.517Z,100446.17
2018-11-21T04:45:02.446Z,100442.27
2018-11-21T04:49:59.343Z,100463.26
2018-11-21T04:54:56.255Z,100482.00
2018-11-21T05:00:02.513Z,100481.15
2018-11-21T05:04:59.378Z,100469.60
2018-11-21T05:09:56.260Z,100471.55
2018-11-21T05:14:53.216Z,100470.56
2018-11-21T05:19:50.104Z,100476.28
2018-11-21T05:24:47.099Z,100479.38
2018-11-21T05:29:45.560Z,100475.97
2018-11-21T05:34:42.417Z,100484.63
2018-11-21T05:39:39.418Z,100507.39
2018-11-21T05:44:36.330Z,100515.37
2018-11-21T05:49:33.212Z,100525.57
2018-11-21T05:54:30.102Z,100533.03
2018-11-21T05:59:32.551Z,100535.63
2018-11-21T06:04:29.444Z,100546.74
2018-11-21T06:09:26.724Z,100550.83
2018-11-21T06:14:23.225Z,100557.80
2018-11-21T06:19:20.130Z,100560.90
2018-11-21T06:24:17.013Z,100564.33
2018-11-21T06:29:28.453Z,100566.93
2018-11-21T06:34:25.450Z,100564.67
2018-11-21T06:39:22.401Z,100576.50
2018-11-21T06:44:19.335Z,100584.77
2018-11-21T06:49:16.247Z,100592.92
2018-11-21T06:54:13.876Z,100597.75
2018-11-21T06:59:12.423Z,100618.59
2018-11-21T07:04:09.326Z,100618.12
2018-11-21T07:09:08.642Z,100629.84
2018-11-21T07:14:07.316Z,100654.40
2018-11-21T07:19:02.833Z,100656.69
2018-11-21T07:23:59.752Z,100668.13
2018-11-21T07:28:56.714Z,100668.47
2018-11-21T07:33:53.615Z,100676.82
2018-11-21T07:38:50.543Z,100684.97
2018-11-21T07:43:47.479Z,100703.41
2018-11-21T07:48:44.427Z,100701.14
2018-11-21T07:53:41.357Z,100712.20
2018-11-21T07:58:38.329Z,100713.38
2018-11-21T08:03:46.233Z,100716.60
2018-11-21T08:09:03.110Z,100717.91
2018-11-21T08:14:28.774Z,100732.94
2018-11-21T08:19:45.299Z,100727.66
2018-11-21T08:25:11.014Z,100742.55
2018-11-21T08:30:08.914Z,100743.14
2018-11-21T08:35:05.846Z,100756.93
2018-11-21T08:40:02.788Z,100768.59
2018-11-21T08:44:59.743Z,100762.12
2018-11-21T08:49:56.675Z,100768.25
2018-11-21T08:54:53.596Z,100774.80
2018-11-21T09:00:05.506Z,100774.24
2018-11-21T09:05:02.398Z,100776.34
2018-11-21T09:09:59.317Z,100772.84
2018-11-21T09:14:56.411Z,100782.39
2018-11-21T09:19:53.361Z,100782.33
2018-11-21T09:24:50.279Z,100777.14
2018-11-21T09:29:50.554Z,100770.83
2018-11-21T09:34:47.442Z,100783.02
2018-11-21T09:39:45.949Z,100787.64
2018-11-21T09:44:43.212Z,100785.08
2018-11-21T09:49:40.141Z,100780.16
2018-11-21T09:54:37.410Z,100785.70
2018-11-21T09:59:56.065Z,100787.78
2018-11-21T10:04:52.957Z,100781.14
2018-11-21T10:09:50.743Z,100779.37
2018-11-21T10:14:47.668Z,100784.75
2018-11-21T10:19:44.600Z,100779.59
2018-11-21T10:24:41.691Z,100780.11
2018-11-21T10:29:42.364Z,100772.89
2018-11-21T10:35:50.398Z,100778.78
2018-11-21T10:40:49.064Z,100781.98
2018-11-21T10:45:47.730Z,100773.85
2018-11-21T10:50:46.463Z,100777.21
2018-11-21T10:55:45.136Z,100780.77
2018-11-21T11:01:01.709Z,100775.55
2018-11-21T11:06:28.936Z,100777.97
2018-11-21T11:11:45.213Z,100779.86
2018-11-21T11:17:04.303Z,100771.00
2018-11-21T11:22:28.311Z,100781.12
2018-11-21T11:27:51.722Z,100787.81
2018-11-21T11:33:07.220Z,100788.60
2018-11-21T11:38:25.085Z,100791.67
2018-11-21T11:44:01.084Z,100797.66
2018-11-21T11:49:09.739Z,100795.45
2018-11-21T11:54:27.576Z,100795.59
2018-11-21T11:59:50.514Z,100799.61
2018-11-21T12:05:20.916Z,100797.45
2018-11-21T12:10:38.692Z,100802.47
2018-11-21T12:15:55.032Z,100801.09
2018-11-21T12:21:11.258Z,100803.06
2018-11-21T12:26:30.393Z,100799.39
2018-11-21T12:31:56.964Z,100804.41
2018-11-21T12:37:27.875Z,100815.55
2018-11-21T12:42:44.441Z,100819.41
2018-11-21T12:47:50.285Z,100825.45
2018-11-21T12:53:14.474Z,100816.80
2018-11-21T12:58:28.743Z,100813.14
2018-11-21T13:03:46.610Z,100806.31
2018-11-21T13:08:51.551Z,100819.93
2018-11-21T13:14:01.590Z,100820.58
2018-11-21T13:19:31.007Z,100816.91
2018-11-21T13:24:54.738Z,100821.55
2018-11-21T13:30:24.847Z,100830.95
2018-11-21T13:35:46.322Z,100834.05
2018-11-21T13:40:59.467Z,100830.86
2018-11-21T13:46:20.105Z,100832.97
2018-11-21T13:51:36.623Z,100828.91
2018-11-21T13:56:35.597Z,100830.50
2018-11-21T14:01:34.292Z,100833.63
2018-11-21T14:06:33.023Z,100832.05
2018-11-21T14:11:31.764Z,100834.38
2018-11-21T14:16:30.456Z,100831.86
2018-11-21T14:21:29.216Z,100836.73
2018-11-21T14:26:27.896Z,100834.30
2018-11-21T14:31:26.544Z,100845.91
2018-11-21T14:36:27.001Z,100846.78
2018-11-21T14:41:25.846Z,100848.23
2018-11-21T14:46:24.513Z,100858.59
2018-11-21T14:51:23.215Z,100853.47
2018-11-21T14:56:21.918Z,100849.34
2018-11-21T15:01:20.605Z,100854.55
2018-11-21T15:06:19.285Z,100857.11
2018-11-21T15:11:17.940Z,100867.20
2018-11-21T15:16:16.651Z,100872.91
2018-11-21T15:21:16.654Z,100881.58
2018-11-21T15:26:14.065Z,100894.11
2018-11-21T15:31:12.759Z,100898.21
2018-11-21T15:36:11.412Z,100897.75
2018-11-21T15:41:10.083Z,100909.41
2018-11-21T15:46:09.874Z,100910.71
2018-11-21T15:51:08.540Z,100920.83
2018-11-21T15:56:07.177Z,100918.63
2018-11-21T16:01:06.098Z,100922.92
2018-11-21T16:06:05.063Z,100915.47
2018-11-21T16:11:03.708Z,100938.19
2018-11-21T16:16:02.351Z,100931.69
2018-11-21T16:21:01.017Z,100937.08
2018-11-21T16:25:59.664Z,100938.77
2018-11-21T16:30:58.319Z,100944.16
2018-11-21T16:35:56.960Z,100948.72
2018-11-21T16:40:55.689Z,100949.94
2018-11-21T16:45:56.107Z,100952.68
2018-11-21T16:50:54.756Z,100963.52
2018-11-21T16:55:53.407Z,100962.56
2018-11-21T17:00:52.055Z,100970.92
2018-11-21T17:05:50.702Z,100962.08
2018-11-21T17:10:49.368Z,100965.42
2018-11-21T17:15:48.007Z,100962.42
2018-11-21T17:20:46.697Z,100964.03
2018-11-21T17:25:45.362Z,100972.19
2018-11-21T17:30:45.125Z,100965.08
2018-11-21T17:35:43.736Z,100973.66
2018-11-21T17:40:43.483Z,100973.87
2018-11-21T17:45:42.134Z,100978.31
2018-11-21T17:50:40.784Z,100980.22
2018-11-21T17:55:40.006Z,100988.25
2018-11-21T18:00:38.735Z,100987.09
2018-11-21T18:05:38.948Z,100991.19
2018-11-21T18:10:39.192Z,100983.20
2018-11-21T18:15:37.829Z,100989.09
2018-11-21T18:20:36.513Z,100989.69
2018-11-21T18:25:37.132Z,100990.53
2018-11-21T18:30:36.780Z,100989.75
2018-11-21T18:35:35.738Z,100989.81
2018-11-21T18:40:34.129Z,100996.95
2018-11-21T18:45:35.639Z,100989.55
2018-11-21T18:50:34.423Z,100998.72
2018-11-21T18:55:38.177Z,101004.06
2018-11-21T19:00:38.444Z,101010.81
2018-11-21T19:05:37.064Z,101009.95
2018-11-21T19:10:35.703Z,101020.83
2018-11-21T19:15:34.392Z,101024.73
2018-11-21T19:20:33.008Z,101025.55
2018-11-21T19:25:31.968Z,101029.10
2018-11-21T19:30:31.495Z,101026.59
2018-11-21T19:35:30.168Z,101022.56
2018-11-21T19:40:28.808Z,101026.25
2018-11-21T19:45:27.466Z,101026.11
2018-11-21T19:50:26.104Z,101026.53
2018-11-21T19:55:26.583Z,101034.81
2018-11-21T20:00:27.671Z,101034.12
2018-11-21T20:05:26.413Z,101030.22
2018-11-21T20:10:25.265Z,101036.29
2018-11-21T20:15:25.104Z,101030.22
2018-11-21T20:20:24.206Z,101029.86
2018-11-21T20:25:24.134Z,101030.77
2018-11-21T20:30:28.431Z,101028.77
2018-11-21T20:35:27.049Z,101021.55
2018-11-21T20:40:27.416Z,101016.94
2018-11-21T20:45:27.052Z,101015.44
2018-11-21T20:50:25.704Z,101023.44
2018-11-21T20:55:25.883Z,101016.28
2018-11-21T21:00:26.997Z,101007.39
2018-11-21T21:05:26.254Z,101014.49
2018-11-21T21:10:26.397Z,101009.57
2018-11-21T21:15:25.047Z,101008.41
2018-11-21T21:20:25.679Z,101026.95
2018-11-21T21:25:31.100Z,101034.33
2018-11-21T21:30:32.193Z,101034.32
2018-11-21T21:35:32.207Z,101034.67
2018-11-21T21:40:30.964Z,101036.92
2018-11-21T21:45:30.689Z,101031.16
2018-11-21T21:50:30.969Z,101026.67
2018-11-21T21:55:30.483Z,101036.43
2018-11-21T22:00:29.805Z,101035.20
2018-11-21T22:05:28.457Z,101038.20
2018-11-21T22:10:27.133Z,101035.82
2018-11-21T22:15:27.150Z,101041.09
2018-11-21T22:20:25.882Z,101040.40
2018-11-21T22:25:24.754Z,101034.32
2018-11-21T22:30:24.001Z,101036.31
2018-11-21T22:35:25.085Z,101040.67
2018-11-21T22:40:23.331Z,101038.64
2018-11-21T22:45:22.743Z,101042.67
2018-11-21T22:50:22.678Z,101045.80
2018-11-21T22:55:21.734Z,101049.50
2018-11-21T23:00:23.642Z,101047.60
2018-11-21T23:05:22.297Z,101047.45
2018-11-21T23:10:26.617Z,101057.57
2018-11-21T23:15:25.277Z,101055.39
2018-11-21T23:20:23.929Z,101054.55
2018-11-21T23:25:22.599Z,101051.35
2018-11-21T23:30:22.431Z,101043.06
2018-11-21T23:35:21.548Z,101048.74
2018-11-21T23:40:20.198Z,101059.96
2018-11-21T23:45:19.069Z,101051.63
2018-11-21T23:50:18.495Z,101046.38
2018-11-21T23:55:18.623Z,101044.57
